createdAt,value
2019-04-07T00:00:46.290Z,54.78
2019-04-07T00:03:18.497Z,55.25
2019-04-07T00:05:50.657Z,55.57
2019-04-07T00:08:22.793Z,55.98
2019-04-07T00:10:54.478Z,56.54
2019-04-07T00:13:28.098Z,57.14
2019-04-07T00:16:00.361Z,57.54
2019-04-07T00:18:32.119Z,57.54
2019-04-07T00:21:04.189Z,57.26
2019-04-07T00:23:36.152Z,56.97
2019-04-07T00:26:08.132Z,57.03
2019-04-07T00:28:39.776Z,56.94
2019-04-07T00:31:12.230Z,57.04
2019-04-07T00:33:44.715Z,57.38
2019-04-07T00:36:16.911Z,57.84
2019-04-07T00:38:48.922Z,58.11
2019-04-07T00:41:20.998Z,58.49
2019-04-07T00:43:53.401Z,59.04
2019-04-07T00:46:25.075Z,59.50
2019-04-07T00:48:57.811Z,59.89
2019-04-07T00:51:31.049Z,60.25
2019-04-07T00:54:04.141Z,60.55
2019-04-07T00:56:35.913Z,60.78
2019-04-07T00:59:07.849Z,61.00
2019-04-07T01:01:39.966Z,61.02
2019-04-07T01:04:12.237Z,60.96
2019-04-07T01:06:43.948Z,60.94
2019-04-07T01:09:15.700Z,61.02
2019-04-07T01:11:47.612Z,61.13
2019-04-07T01:14:19.445Z,61.12
2019-04-07T01:16:51.671Z,61.25
2019-04-07T01:19:24.325Z,61.37
2019-04-07T01:21:56.289Z,61.52
2019-04-07T01:24:28.647Z,61.73
2019-04-07T01:27:00.693Z,62.07
2019-04-07T01:29:33.224Z,62.32
2019-04-07T01:32:05.050Z,62.55
2019-04-07T01:34:37.006Z,62.73
2019-04-07T01:37:08.864Z,62.90
2019-04-07T01:39:40.713Z,63.05
2019-04-07T01:42:29.287Z,63.09
2019-04-07T01:45:18.946Z,63.13
2019-04-07T01:48:04.901Z,63.23
2019-04-07T01:50:44.191Z,63.50
2019-04-07T01:53:24.518Z,63.71
2019-04-07T01:55:57.642Z,63.78
2019-04-07T01:58:38.134Z,63.94
2019-04-07T02:01:12.046Z,64.10
2019-04-07T02:03:48.600Z,64.02
2019-04-07T02:06:28.269Z,64.09
2019-04-07T02:09:18.299Z,64.36
2019-04-07T02:12:03.533Z,64.58
2019-04-07T02:14:43.455Z,64.66
2019-04-07T02:17:30.108Z,64.85
2019-04-07T02:20:12.567Z,65.12
2019-04-07T02:22:47.590Z,65.48
2019-04-07T02:25:36.178Z,65.73
2019-04-07T02:28:25.328Z,66.01
2019-04-07T02:31:08.113Z,66.34
2019-04-07T02:33:42.436Z,66.67
2019-04-07T02:36:25.637Z,66.90
2019-04-07T02:38:54.758Z,67.10
2019-04-07T02:41:31.172Z,67.24
2019-04-07T02:44:07.849Z,67.22
2019-04-07T02:46:41.559Z,67.30
2019-04-07T02:49:17.922Z,67.24
2019-04-07T02:52:07.699Z,67.19
2019-04-07T02:54:44.491Z,67.16
2019-04-07T02:57:18.929Z,67.10
2019-04-07T02:59:58.033Z,67.32
2019-04-07T03:02:37.842Z,67.68
2019-04-07T03:05:14.249Z,67.92
2019-04-07T03:07:56.759Z,68.07
2019-04-07T03:10:31.206Z,68.16
2019-04-07T03:13:10.415Z,68.29
2019-04-07T03:16:00.515Z,68.43
2019-04-07T03:18:50.741Z,68.50
2019-04-07T03:21:40.152Z,68.52
2019-04-07T03:24:30.549Z,68.58
2019-04-07T03:27:15.850Z,68.72
2019-04-07T03:30:06.208Z,68.97
2019-04-07T03:32:45.812Z,69.03
2019-04-07T03:35:20.282Z,68.91
2019-04-07T03:37:59.304Z,68.77
2019-04-07T03:40:36.706Z,68.66
2019-04-07T03:43:19.643Z,68.69
2019-04-07T03:45:55.915Z,68.78
2019-04-07T03:48:30.475Z,68.76
2019-04-07T03:51:22.504Z,68.84
2019-04-07T03:53:56.514Z,68.82
2019-04-07T03:56:34.239Z,68.73
2019-04-07T03:59:14.665Z,68.73
2019-04-07T04:01:57.540Z,68.71
2019-04-07T04:04:48.965Z,68.62
2019-04-07T04:07:31.450Z,68.60
2019-04-07T04:10:03.547Z,68.59
2019-04-07T04:12:37.607Z,68.49
2019-04-07T04:15:18.789Z,68.32
2019-04-07T04:17:51.257Z,68.27
2019-04-07T04:20:23.950Z,68.28
2019-04-07T04:22:55.894Z,67.98
2019-04-07T04:25:27.572Z,67.63
2019-04-07T04:27:59.443Z,67.31
2019-04-07T04:30:32.029Z,67.11
2019-04-07T04:33:04.114Z,66.89
2019-04-07T04:35:35.831Z,66.63
2019-04-07T04:38:08.048Z,66.30
2019-04-07T04:40:40.772Z,66.00
2019-04-07T04:43:13.842Z,65.72
2019-04-07T04:45:46.158Z,65.67
2019-04-07T04:48:18.118Z,65.56
2019-04-07T04:50:50.417Z,65.53
2019-04-07T04:53:22.646Z,65.20
2019-04-07T04:55:54.498Z,65.17
2019-04-07T04:58:27.062Z,64.78
2019-04-07T05:00:59.166Z,64.37
2019-04-07T05:03:31.566Z,64.19
2019-04-07T05:06:03.656Z,63.75
2019-04-07T05:08:35.924Z,63.10
2019-04-07T05:11:07.967Z,62.72
2019-04-07T05:13:39.901Z,62.45
2019-04-07T05:16:11.909Z,61.86
2019-04-07T05:18:43.945Z,61.66
2019-04-07T05:21:16.033Z,61.11
2019-04-07T05:23:48.751Z,60.54
2019-04-07T05:26:21.392Z,60.24
2019-04-07T05:28:53.849Z,59.91
2019-04-07T05:31:25.838Z,59.62
2019-04-07T05:33:57.646Z,59.33
2019-04-07T05:36:29.418Z,58.77
2019-04-07T05:39:01.084Z,58.23
2019-04-07T05:41:33.964Z,58.15
2019-04-07T05:44:06.348Z,57.82
2019-04-07T05:46:40.140Z,57.76
2019-04-07T05:49:12.293Z,56.90
2019-04-07T05:51:44.903Z,56.65
2019-04-07T05:54:18.972Z,56.36
2019-04-07T05:56:50.337Z,55.78
2019-04-07T05:59:22.223Z,55.64
2019-04-07T06:01:58.473Z,55.51
2019-04-07T06:04:28.264Z,55.53
2019-04-07T06:07:00.431Z,55.59
2019-04-07T06:09:33.777Z,55.49
2019-04-07T06:12:09.070Z,55.30
2019-04-07T06:14:38.916Z,55.26
2019-04-07T06:17:10.996Z,55.31
2019-04-07T06:19:42.548Z,55.16
2019-04-07T06:22:15.557Z,54.98
2019-04-07T06:24:48.750Z,54.46
2019-04-07T06:27:20.472Z,54.52
2019-04-07T06:29:57.202Z,53.90
2019-04-07T06:32:26.749Z,54.08
2019-04-07T06:34:58.533Z,54.34
2019-04-07T06:37:30.859Z,54.19
2019-04-07T06:40:03.514Z,53.44
2019-04-07T06:42:35.471Z,53.92
2019-04-07T06:45:12.910Z,53.95
2019-04-07T06:47:46.359Z,53.54
2019-04-07T06:50:47.700Z,53.08
2019-04-07T06:53:20.643Z,52.80
2019-04-07T06:56:08.947Z,52.47
2019-04-07T06:58:42.941Z,52.47
2019-04-07T07:01:16.656Z,51.23
2019-04-07T07:04:10.913Z,50.81
2019-04-07T07:06:58.071Z,50.17
2019-04-07T07:09:50.246Z,50.31
2019-04-07T07:12:30.566Z,49.89
2019-04-07T07:15:07.935Z,47.89
2019-04-07T07:17:51.066Z,48.70
2019-04-07T07:20:41.495Z,47.20
2019-04-07T07:23:17.843Z,47.34
2019-04-07T07:25:50.533Z,46.54
2019-04-07T07:28:22.767Z,45.26
2019-04-07T07:30:55.628Z,45.39
2019-04-07T07:33:28.002Z,44.66
2019-04-07T07:36:02.353Z,44.81
2019-04-07T07:38:34.578Z,44.57
2019-04-07T07:41:06.525Z,44.70
2019-04-07T07:43:39.013Z,44.23
2019-04-07T07:46:10.858Z,44.20
2019-04-07T07:48:43.223Z,44.20
2019-04-07T07:51:15.451Z,43.67
2019-04-07T07:53:48.175Z,43.18
2019-04-07T07:56:20.224Z,42.67
2019-04-07T07:58:51.880Z,42.75
2019-04-07T08:01:23.690Z,42.63
2019-04-07T08:03:55.806Z,42.34
2019-04-07T08:06:27.795Z,42.33
2019-04-07T08:09:09.909Z,41.97
2019-04-07T08:11:34.756Z,41.50
2019-04-07T08:14:06.743Z,41.76
2019-04-07T08:16:39.095Z,41.86
2019-04-07T08:19:11.189Z,41.84
2019-04-07T08:21:45.303Z,40.99
2019-04-07T08:24:18.562Z,41.31
2019-04-07T08:26:50.234Z,40.92
2019-04-07T08:29:22.491Z,40.67
2019-04-07T08:31:55.413Z,40.41
2019-04-07T08:34:30.557Z,39.88
2019-04-07T08:37:00.977Z,39.93
2019-04-07T08:39:35.442Z,38.92
2019-04-07T08:42:09.751Z,38.38
2019-04-07T08:44:39.615Z,38.01
2019-04-07T08:47:16.458Z,38.21
2019-04-07T08:49:46.058Z,37.79
2019-04-07T08:52:18.528Z,37.80
2019-04-07T08:54:52.176Z,37.71
2019-04-07T08:57:27.217Z,38.10
2019-04-07T08:59:58.914Z,37.59
2019-04-07T09:02:31.251Z,37.23
2019-04-07T09:05:03.349Z,36.87
2019-04-07T09:07:35.454Z,37.13
2019-04-07T09:10:10.445Z,37.37
2019-04-07T09:12:42.879Z,37.73
2019-04-07T09:15:16.661Z,36.15
2019-04-07T09:17:50.156Z,36.81
2019-04-07T09:20:32.624Z,36.65
2019-04-07T09:23:06.981Z,36.89
2019-04-07T09:25:57.312Z,37.42
2019-04-07T09:28:31.507Z,36.80
2019-04-07T09:31:04.848Z,35.79
2019-04-07T09:33:48.987Z,36.73
2019-04-07T09:36:36.324Z,36.63
2019-04-07T09:39:18.847Z,37.06
2019-04-07T09:41:54.875Z,36.01
2019-04-07T09:44:34.013Z,37.55
2019-04-07T09:47:04.479Z,36.44
2019-04-07T09:49:49.343Z,35.49
2019-04-07T09:52:24.963Z,35.45
2019-04-07T09:54:58.626Z,35.20
2019-04-07T09:57:50.391Z,35.49
2019-04-07T10:00:24.254Z,36.45
2019-04-07T10:02:58.731Z,36.05
2019-04-07T10:05:41.042Z,36.35
2019-04-07T10:08:28.186Z,35.55
2019-04-07T10:11:10.358Z,35.91
2019-04-07T10:13:47.541Z,36.03
2019-04-07T10:16:21.184Z,36.30
2019-04-07T10:18:57.627Z,36.21
2019-04-07T10:21:37.096Z,35.67
2019-04-07T10:24:15.270Z,35.96
2019-04-07T10:26:56.283Z,35.15
2019-04-07T10:29:29.551Z,35.28
2019-04-07T10:32:06.431Z,35.45
2019-04-07T10:34:40.750Z,35.38
2019-04-07T10:37:33.468Z,35.91
2019-04-07T10:40:19.470Z,35.97
2019-04-07T10:42:54.711Z,35.55
2019-04-07T10:45:29.971Z,35.20
2019-04-07T10:48:06.914Z,35.19
2019-04-07T10:50:46.944Z,34.84
2019-04-07T10:53:34.113Z,34.96
2019-04-07T10:56:19.985Z,35.32
2019-04-07T10:58:53.929Z,34.97
2019-04-07T11:01:33.378Z,34.62
2019-04-07T11:04:23.035Z,34.56
2019-04-07T11:07:03.074Z,34.76
2019-04-07T11:09:48.285Z,34.93
2019-04-07T11:12:34.663Z,34.11
2019-04-07T11:15:27.068Z,35.02
2019-04-07T11:18:17.483Z,34.50
2019-04-07T11:20:51.401Z,34.34
2019-04-07T11:23:41.421Z,35.52
2019-04-07T11:26:31.038Z,35.10
2019-04-07T11:29:04.511Z,35.49
2019-04-07T11:31:40.857Z,36.07
2019-04-07T11:34:23.891Z,36.16
2019-04-07T11:37:00.582Z,34.93
2019-04-07T11:39:49.844Z,34.92
2019-04-07T11:42:33.305Z,34.63
2019-04-07T11:45:11.694Z,34.44
2019-04-07T11:47:45.912Z,34.20
2019-04-07T11:50:23.422Z,34.60
2019-04-07T11:53:09.113Z,34.87
2019-04-07T11:55:48.580Z,35.01
2019-04-07T11:58:31.404Z,35.31
2019-04-07T12:01:16.669Z,35.11
2019-04-07T12:03:57.188Z,34.47
2019-04-07T12:06:34.191Z,33.91
2019-04-07T12:09:15.042Z,33.62
2019-04-07T12:11:49.312Z,33.87
2019-04-07T12:14:25.843Z,33.86
2019-04-07T12:17:15.623Z,33.62
2019-04-07T12:19:59.156Z,33.36
2019-04-07T12:22:49.393Z,33.80
2019-04-07T12:25:33.655Z,33.14
2019-04-07T12:28:14.696Z,32.87
2019-04-07T12:30:52.285Z,32.77
2019-04-07T12:33:43.238Z,33.20
2019-04-07T12:36:30.751Z,32.83
2019-04-07T12:39:03.986Z,33.35
2019-04-07T12:41:43.689Z,33.14
2019-04-07T12:44:33.208Z,33.26
2019-04-07T12:47:10.227Z,33.32
2019-04-07T12:49:49.771Z,32.89
2019-04-07T12:52:33.524Z,32.80
2019-04-07T12:55:25.151Z,32.96
2019-04-07T12:58:10.789Z,32.50
2019-04-07T13:00:57.970Z,32.78
2019-04-07T13:03:21.145Z,31.69
2019-04-07T13:06:06.379Z,32.25
2019-04-07T13:08:41.227Z,32.18
2019-04-07T13:11:26.418Z,32.14
2019-04-07T13:13:49.113Z,32.42
2019-04-07T13:16:29.505Z,32.17
2019-04-07T13:19:21.521Z,32.09
2019-04-07T13:21:57.286Z,32.17
2019-04-07T13:24:48.545Z,31.88
2019-04-07T13:27:39.060Z,32.14
2019-04-07T13:30:19.241Z,32.39
2019-04-07T13:33:00.439Z,31.91
2019-04-07T13:35:39.960Z,31.76
2019-04-07T13:38:17.497Z,31.97
2019-04-07T13:40:50.747Z,32.13
2019-04-07T13:43:35.117Z,31.67
2019-04-07T13:46:20.463Z,31.97
2019-04-07T13:49:01.907Z,31.88
2019-04-07T13:54:39.390Z,32.40
2019-04-07T13:57:29.481Z,32.62
2019-04-07T14:00:20.177Z,33.03
2019-04-07T14:02:57.079Z,32.97
2019-04-07T14:05:33.200Z,33.18
2019-04-07T14:08:07.110Z,33.21
2019-04-07T14:10:42.402Z,33.29
2019-04-07T14:13:15.835Z,33.38
2019-04-07T14:16:01.679Z,33.52
2019-04-07T14:18:54.357Z,33.22
2019-04-07T14:21:30.632Z,33.34
2019-04-07T14:24:08.176Z,32.84
2019-04-07T14:26:58.847Z,33.06
2019-04-07T14:29:41.688Z,33.22
2019-04-07T14:32:31.718Z,33.28
2019-04-07T14:35:22.631Z,33.20
2019-04-07T14:37:56.132Z,33.35
2019-04-07T14:40:30.161Z,33.43
2019-04-07T14:43:13.572Z,33.18
2019-04-07T14:45:48.686Z,33.76
2019-04-07T14:48:25.374Z,33.92
2019-04-07T14:51:01.622Z,33.86
2019-04-07T14:53:38.006Z,34.15
2019-04-07T14:56:26.360Z,34.16
2019-04-07T14:59:12.865Z,34.04
2019-04-07T15:02:00.174Z,34.21
2019-04-07T15:04:31.934Z,34.42
2019-04-07T15:07:08.888Z,34.38
2019-04-07T15:09:44.889Z,34.80
2019-04-07T15:12:23.721Z,34.50
2019-04-07T15:14:52.677Z,34.68
2019-04-07T15:17:24.580Z,34.69
2019-04-07T15:19:57.124Z,34.80
2019-04-07T15:22:30.997Z,35.19
2019-04-07T15:25:02.314Z,35.12
2019-04-07T15:27:34.936Z,35.28
2019-04-07T15:30:13.298Z,35.52
2019-04-07T15:32:43.862Z,35.88
2019-04-07T15:35:16.486Z,35.98
2019-04-07T15:37:51.554Z,36.13
2019-04-07T15:40:21.662Z,36.21
2019-04-07T15:42:53.762Z,36.38
2019-04-07T15:45:26.569Z,36.61
2019-04-07T15:48:00.527Z,36.70
2019-04-07T15:50:31.788Z,37.07
2019-04-07T15:53:03.748Z,37.21
2019-04-07T15:55:45.669Z,37.47
2019-04-07T15:58:09.599Z,37.77
2019-04-07T16:00:41.973Z,37.88
2019-04-07T16:03:15.715Z,37.93
2019-04-07T16:05:47.465Z,38.25
2019-04-07T16:08:20.146Z,38.58
2019-04-07T16:10:53.642Z,38.93
2019-04-07T16:13:26.631Z,39.43
2019-04-07T16:15:59.692Z,39.72
2019-04-07T16:18:31.988Z,40.01
2019-04-07T16:21:06.922Z,40.17
2019-04-07T16:23:37.491Z,40.50
2019-04-07T16:26:10.762Z,40.81
2019-04-07T16:28:45.401Z,41.10
2019-04-07T16:31:16.770Z,41.30
2019-04-07T16:33:49.298Z,41.55
2019-04-07T16:36:24.519Z,41.75
2019-04-07T16:38:56.402Z,41.97
2019-04-07T16:41:29.059Z,42.24
2019-04-07T16:44:03.537Z,42.32
2019-04-07T16:46:34.464Z,42.38
2019-04-07T16:49:07.784Z,42.43
2019-04-07T16:51:40.456Z,42.58
2019-04-07T16:54:13.148Z,42.50
2019-04-07T16:56:45.581Z,42.70
2019-04-07T16:59:17.266Z,43.10
2019-04-07T17:01:49.801Z,43.13
2019-04-07T17:04:21.498Z,43.21
2019-04-07T17:07:00.278Z,43.69
2019-04-07T17:09:28.440Z,43.81
2019-04-07T17:12:00.465Z,44.27
2019-04-07T17:14:35.973Z,44.74
2019-04-07T17:17:07.470Z,45.08
2019-04-07T17:19:39.312Z,45.43
2019-04-07T17:22:14.012Z,45.91
2019-04-07T17:24:45.301Z,46.41
2019-04-07T17:27:17.280Z,46.94
2019-04-07T17:29:53.296Z,47.41
2019-04-07T17:32:24.267Z,47.78
2019-04-07T17:34:56.315Z,48.14
2019-04-07T17:37:28.601Z,48.47
2019-04-07T17:40:11.198Z,48.57
2019-04-07T17:42:41.893Z,48.81
2019-04-07T17:45:21.255Z,49.19
2019-04-07T17:48:07.266Z,49.54
2019-04-07T17:51:01.078Z,49.67
2019-04-07T17:53:40.072Z,49.62
2019-04-07T17:56:20.212Z,49.85
2019-04-07T17:58:56.733Z,49.92
2019-04-07T18:01:31.045Z,50.04
2019-04-07T18:04:04.535Z,49.75
2019-04-07T18:06:50.643Z,49.65
2019-04-07T18:09:42.478Z,49.77
2019-04-07T18:12:20.285Z,49.72
2019-04-07T18:15:11.883Z,49.83
2019-04-07T18:17:47.720Z,50.05
2019-04-07T18:20:29.443Z,50.32
2019-04-07T18:23:23.741Z,50.44
2019-04-07T18:26:08.410Z,50.54
2019-04-07T18:28:43.500Z,50.46
2019-04-07T18:31:23.678Z,50.17
2019-04-07T18:34:04.173Z,50.04
2019-04-07T18:36:55.785Z,50.03
2019-04-07T18:39:51.683Z,50.01
2019-04-07T18:42:20.897Z,49.67
2019-04-07T18:45:07.973Z,49.62
2019-04-07T18:47:42.830Z,50.02
2019-04-07T18:50:36.973Z,51.03
2019-04-07T18:53:10.351Z,51.57
2019-04-07T18:55:45.164Z,51.92
2019-04-07T18:58:25.570Z,52.31
2019-04-07T19:01:18.174Z,52.72
2019-04-07T19:04:04.506Z,53.06
2019-04-07T19:06:46.106Z,53.31
2019-04-07T19:09:33.177Z,53.45
2019-04-07T19:12:18.907Z,53.25
2019-04-07T19:15:03.940Z,53.06
2019-04-07T19:17:48.179Z,53.04
2019-04-07T19:20:22.820Z,52.96
2019-04-07T19:23:05.240Z,53.19
2019-04-07T19:25:41.958Z,53.63
2019-04-07T19:28:34.081Z,53.86
2019-04-07T19:31:16.234Z,54.00
2019-04-07T19:33:59.654Z,54.28
2019-04-07T19:36:32.259Z,54.71
2019-04-07T19:39:34.854Z,55.33
2019-04-07T19:42:09.848Z,56.08
2019-04-07T19:44:57.715Z,56.72
2019-04-07T19:47:34.920Z,57.17
2019-04-07T19:50:11.246Z,57.57
2019-04-07T19:53:03.766Z,57.89
2019-04-07T19:55:36.716Z,58.01
2019-04-07T19:58:15.963Z,57.91
2019-04-07T20:00:55.133Z,57.88
2019-04-07T20:03:44.755Z,57.99
2019-04-07T20:06:34.136Z,58.37
2019-04-07T20:09:12.773Z,58.97
2019-04-07T20:11:52.635Z,59.55
2019-04-07T20:14:47.389Z,59.90
2019-04-07T20:17:17.421Z,60.19
2019-04-07T20:20:04.225Z,60.46
2019-04-07T20:22:50.012Z,60.71
2019-04-07T20:25:24.507Z,60.86
2019-04-07T20:28:07.024Z,61.01
2019-04-07T20:30:57.140Z,61.12
2019-04-07T20:33:33.239Z,61.25
2019-04-07T20:36:13.863Z,61.37
2019-04-07T20:38:44.613Z,61.51
2019-04-07T20:41:21.794Z,61.52
2019-04-07T20:44:11.690Z,61.38
2019-04-07T20:46:45.167Z,61.48
2019-04-07T20:49:24.373Z,61.71
2019-04-07T20:52:15.364Z,61.99
2019-04-07T20:55:05.743Z,62.27
2019-04-07T20:58:04.453Z,62.46
2019-04-07T21:00:53.317Z,62.76
2019-04-07T21:03:22.285Z,62.86
2019-04-07T21:05:53.469Z,63.14
2019-04-07T21:08:38.865Z,63.11
2019-04-07T21:11:29.077Z,63.11
2019-04-07T21:14:05.240Z,63.29
2019-04-07T21:16:50.979Z,63.29
2019-04-07T21:19:41.134Z,63.65
2019-04-07T21:22:15.635Z,63.84
2019-04-07T21:25:09.256Z,63.87
2019-04-07T21:27:54.844Z,64.13
2019-04-07T21:30:36.998Z,64.38
2019-04-07T21:33:13.372Z,64.69
2019-04-07T21:35:46.666Z,65.03
2019-04-07T21:38:32.729Z,65.34
2019-04-07T21:41:24.697Z,65.78
2019-04-07T21:44:04.135Z,66.02
2019-04-07T21:46:37.456Z,66.25
2019-04-07T21:49:23.125Z,66.53
2019-04-07T21:51:56.876Z,66.72
2019-04-07T21:54:42.920Z,66.89
2019-04-07T21:57:28.882Z,66.98
2019-04-07T22:00:08.055Z,66.98
2019-04-07T22:02:44.760Z,66.94
2019-04-07T22:05:30.917Z,67.10
2019-04-07T22:08:20.097Z,67.04
2019-04-07T22:10:53.673Z,66.89
2019-04-07T22:13:25.846Z,66.81
2019-04-07T22:16:00.733Z,66.84
2019-04-07T22:18:31.125Z,67.09
2019-04-07T22:21:03.363Z,67.38
2019-04-07T22:23:35.155Z,67.50
2019-04-07T22:26:13.433Z,67.56
2019-04-07T22:28:40.421Z,67.66
2019-04-07T22:31:15.361Z,67.81
2019-04-07T22:33:48.328Z,68.06
2019-04-07T22:36:20.386Z,67.91
2019-04-07T22:38:56.416Z,66.89
2019-04-07T22:41:26.997Z,66.41
2019-04-07T22:43:59.595Z,65.70
2019-04-07T22:46:31.349Z,64.93
2019-04-07T22:49:03.217Z,64.27
2019-04-07T22:51:35.178Z,63.71
2019-04-07T22:54:07.895Z,63.18
2019-04-07T22:56:39.933Z,62.85
2019-04-07T22:59:12.826Z,62.40
2019-04-07T23:01:44.874Z,62.32
2019-04-07T23:04:16.921Z,62.25
2019-04-07T23:06:48.785Z,62.22
2019-04-07T23:09:20.665Z,62.11
2019-04-07T23:11:52.637Z,61.34
2019-04-07T23:14:25.377Z,60.53
2019-04-07T23:16:57.422Z,60.01
2019-04-07T23:19:30.297Z,59.32
2019-04-07T23:22:03.178Z,58.91
2019-04-07T23:24:35.053Z,58.85
2019-04-07T23:27:08.208Z,58.93
2019-04-07T23:29:40.159Z,58.75
2019-04-07T23:32:11.920Z,58.12
2019-04-07T23:34:43.817Z,58.18
2019-04-07T23:37:16.539Z,58.18
2019-04-07T23:39:48.428Z,57.88
2019-04-07T23:42:22.096Z,57.84
2019-04-07T23:44:54.128Z,57.66
2019-04-07T23:47:27.042Z,57.56
2019-04-07T23:49:59.048Z,57.40
2019-04-07T23:52:31.395Z,56.72
2019-04-07T23:55:04.307Z,56.72
2019-04-07T23:57:36.080Z,56.71
